GCHI/VDE METAR and TAF weather

Enter ICAO airport designator
Station Type Date Time Source
GCHI METAR 2018/01/22 11:30 UTC NOAA

GCHI 221130Z 04009KT 9999 FEW030 20/15 Q1027


Station Type Date Time Source
GCHI Decoded METAR 2018/01/22 11:30 UTC NOAA

Hierro / Aeropuerto, Spain (GCHI) 27-49N 017-53W 32M
Jan 22, 2018 - 06:30 AM EST / 2018.01.22 1130 UTC
Wind: from the NE (040 degrees) at 10 MPH (9 KT):0
Visibility: greater than 7 mile(s):0
Sky conditions: mostly clear
Temperature: 68 F (20 C)
Dew Point: 59 F (15 C)
Relative Humidity: 72%
Pressure (altimeter): 30.33 in. Hg (1027 hPa)
ob: GCHI 221130Z 04009KT 9999 FEW030 20/15 Q1027
cycle: 11

Station Type Date Time Source
GCHI TAF 2018/01/22 09:27 UTC NOAA

TAF GCHI 220800Z 2209/2309 03010KT CAVOK TX21/2214Z TN18/2306Z


Example: see airport list